sensor_id;sensor_type;location;lat;lon;timestamp;pressure;altitude;pressure_sealevel;temperature;humidity
77207;BME280;66190;50.708;7.906;2023-12-14T00:00:23;95365.06;;;4.82;100.00
77207;BME280;66190;50.708;7.906;2023-12-14T00:02:49;95371.84;;;4.84;100.00
77207;BME280;66190;50.708;7.906;2023-12-14T00:05:15;95373.88;;;4.82;100.00
77207;BME280;66190;50.708;7.906;2023-12-14T00:07:40;95374.06;;;4.81;100.00
77207;BME280;66190;50.708;7.906;2023-12-14T00:10:06;95378.78;;;4.79;100.00
77207;BME280;66190;50.708;7.906;2023-12-14T00:12:32;95376.97;;;4.86;100.00
77207;BME280;66190;50.708;7.906;2023-12-14T00:14:57;95387.84;;;4.84;100.00
77207;BME280;66190;50.708;7.906;2023-12-14T00:17:22;95392.53;;;4.82;100.00
77207;BME280;66190;50.708;7.906;2023-12-14T00:19:48;95400.31;;;4.84;100.00
77207;BME280;66190;50.708;7.906;2023-12-14T00:22:13;95399.69;;;4.82;100.00
77207;BME280;66190;50.708;7.906;2023-12-14T00:24:39;95397.84;;;4.82;100.00
77207;BME280;66190;50.708;7.906;2023-12-14T00:27:04;95405.22;;;4.80;100.00
77207;BME280;66190;50.708;7.906;2023-12-14T00:29:30;95400.91;;;4.79;100.00
77207;BME280;66190;50.708;7.906;2023-12-14T00:32:02;95400.91;;;4.79;100.00
77207;BME280;66190;50.708;7.906;2023-12-14T00:34:34;95408.06;;;4.79;100.00
77207;BME280;66190;50.708;7.906;2023-12-14T00:37:00;95408.91;;;4.79;100.00
77207;BME280;66190;50.708;7.906;2023-12-14T00:39:26;95418.50;;;4.74;100.00
77207;BME280;66190;50.708;7.906;2023-12-14T00:41:51;95420.97;;;4.75;100.00
77207;BME280;66190;50.708;7.906;2023-12-14T00:44:16;95422.59;;;4.76;100.00
77207;BME280;66190;50.708;7.906;2023-12-14T00:46:42;95425.00;;;4.71;100.00
77207;BME280;66190;50.708;7.906;2023-12-14T00:49:07;95434.88;;;4.71;100.00
77207;BME280;66190;50.708;7.906;2023-12-14T00:51:33;95430.78;;;4.75;100.00
77207;BME280;66190;50.708;7.906;2023-12-14T00:53:58;95445.53;;;4.71;100.00
77207;BME280;66190;50.708;7.906;2023-12-14T00:56:24;95449.81;;;4.72;100.00
77207;BME280;66190;50.708;7.906;2023-12-14T00:58:49;95446.13;;;4.73;100.00
77207;BME280;66190;50.708;7.906;2023-12-14T01:01:14;95448.38;;;4.69;100.00
77207;BME280;66190;50.708;7.906;2023-12-14T01:03:40;95452.88;;;4.69;100.00
77207;BME280;66190;50.708;7.906;2023-12-14T01:06:05;95451.22;;;4.68;100.00
77207;BME280;66190;50.708;7.906;2023-12-14T01:08:32;95466.41;;;4.67;100.00
77207;BME280;66190;50.708;7.906;2023-12-14T01:10:57;95471.72;;;4.67;100.00
77207;BME280;66190;50.708;7.906;2023-12-14T01:13:23;95477.41;;;4.64;100.00
77207;BME280;66190;50.708;7.906;2023-12-14T01:15:48;95477.25;;;4.66;100.00
77207;BME280;66190;50.708;7.906;2023-12-14T01:18:13;95472.91;;;4.64;100.00
77207;BME280;66190;50.708;7.906;2023-12-14T01:20:39;95481.75;;;4.65;100.00
77207;BME280;66190;50.708;7.906;2023-12-14T01:23:04;95478.88;;;4.67;100.00
77207;BME280;66190;50.708;7.906;2023-12-14T01:25:29;95483.56;;;4.64;100.00
77207;BME280;66190;50.708;7.906;2023-12-14T01:27:55;95487.44;;;4.62;100.00
77207;BME280;66190;50.708;7.906;2023-12-14T01:30:21;95487.50;;;4.69;100.00
77207;BME280;66190;50.708;7.906;2023-12-14T01:32:46;95492.78;;;4.62;100.00
77207;BME280;66190;50.708;7.906;2023-12-14T01:35:11;95498.56;;;4.66;100.00
77207;BME280;66190;50.708;7.906;2023-12-14T01:37:37;95489.47;;;4.60;100.00
77207;BME280;66190;50.708;7.906;2023-12-14T01:40:03;95507.09;;;4.61;100.00
77207;BME280;66190;50.708;7.906;2023-12-14T01:42:30;95518.00;;;4.66;100.00
77207;BME280;66190;50.708;7.906;2023-12-14T01:44:55;95519.03;;;4.65;100.00
77207;BME280;66190;50.708;7.906;2023-12-14T01:47:21;95528.84;;;4.64;100.00
77207;BME280;66190;50.708;7.906;2023-12-14T01:49:46;95517.38;;;4.64;100.00
77207;BME280;66190;50.708;7.906;2023-12-14T01:52:11;95527.47;;;4.69;100.00
77207;BME280;66190;50.708;7.906;2023-12-14T01:54:37;95529.31;;;4.68;100.00
77207;BME280;66190;50.708;7.906;2023-12-14T01:57:02;95529.56;;;4.73;100.00
77207;BME280;66190;50.708;7.906;2023-12-14T01:59:28;95536.72;;;4.73;100.00
77207;BME280;66190;50.708;7.906;2023-12-14T02:01:55;95538.56;;;4.72;100.00
77207;BME280;66190;50.708;7.906;2023-12-14T02:04:23;95540.59;;;4.70;100.00
77207;BME280;66190;50.708;7.906;2023-12-14T02:06:49;95550.81;;;4.67;100.00
77207;BME280;66190;50.708;7.906;2023-12-14T02:09:15;95560.81;;;4.64;100.00
77207;BME280;66190;50.708;7.906;2023-12-14T02:11:40;95561.84;;;4.63;100.00
77207;BME280;66190;50.708;7.906;2023-12-14T02:14:06;95567.19;;;4.63;100.00
77207;BME280;66190;50.708;7.906;2023-12-14T02:16:33;95561.66;;;4.65;100.00
77207;BME280;66190;50.708;7.906;2023-12-14T02:18:59;95575.34;;;4.62;100.00
77207;BME280;66190;50.708;7.906;2023-12-14T02:21:24;95573.16;;;4.66;100.00
77207;BME280;66190;50.708;7.906;2023-12-14T02:23:49;95572.94;;;4.67;100.00
77207;BME280;66190;50.708;7.906;2023-12-14T02:26:15;95575.44;;;4.69;100.00
77207;BME280;66190;50.708;7.906;2023-12-14T02:28:40;95575.50;;;4.75;100.00
77207;BME280;66190;50.708;7.906;2023-12-14T02:31:06;95575.09;;;4.78;100.00
77207;BME280;66190;50.708;7.906;2023-12-14T02:33:32;95565.09;;;4.80;100.00
77207;BME280;66190;50.708;7.906;2023-12-14T02:35:57;95575.19;;;4.85;100.00
77207;BME280;66190;50.708;7.906;2023-12-14T02:38:22;95573.97;;;4.87;100.00
77207;BME280;66190;50.708;7.906;2023-12-14T02:40:48;95583.81;;;4.87;100.00
77207;BME280;66190;50.708;7.906;2023-12-14T02:43:15;95583.19;;;4.85;100.00
77207;BME280;66190;50.708;7.906;2023-12-14T02:45:41;95592.00;;;4.85;100.00
77207;BME280;66190;50.708;7.906;2023-12-14T02:48:06;95598.72;;;4.81;100.00
77207;BME280;66190;50.708;7.906;2023-12-14T02:50:32;95598.34;;;4.84;100.00
77207;BME280;66190;50.708;7.906;2023-12-14T02:52:57;95602.66;;;4.85;100.00
77207;BME280;66190;50.708;7.906;2023-12-14T02:55:23;95604.06;;;4.81;100.00
77207;BME280;66190;50.708;7.906;2023-12-14T02:57:48;95601.22;;;4.83;100.00
77207;BME280;66190;50.708;7.906;2023-12-14T03:00:14;95617.84;;;4.85;100.00
77207;BME280;66190;50.708;7.906;2023-12-14T03:02:39;95610.00;;;4.83;100.00
77207;BME280;66190;50.708;7.906;2023-12-14T03:05:05;95616.63;;;4.87;100.00
77207;BME280;66190;50.708;7.906;2023-12-14T03:07:30;95626.44;;;4.87;100.00
77207;BME280;66190;50.708;7.906;2023-12-14T03:09:56;95627.53;;;4.92;100.00
77207;BME280;66190;50.708;7.906;2023-12-14T03:12:21;95625.50;;;4.94;100.00
77207;BME280;66190;50.708;7.906;2023-12-14T03:14:47;95619.16;;;4.95;100.00
77207;BME280;66190;50.708;7.906;2023-12-14T03:17:12;95625.13;;;4.97;100.00
77207;BME280;66190;50.708;7.906;2023-12-14T03:19:41;95624.94;;;4.99;100.00
77207;BME280;66190;50.708;7.906;2023-12-14T03:22:07;95628.06;;;5.02;100.00
77207;BME280;66190;50.708;7.906;2023-12-14T03:24:32;95629.13;;;5.08;100.00
77207;BME280;66190;50.708;7.906;2023-12-14T03:26:58;95636.59;;;5.12;100.00
77207;BME280;66190;50.708;7.906;2023-12-14T03:29:23;95640.25;;;5.11;100.00
77207;BME280;66190;50.708;7.906;2023-12-14T03:31:49;95647.44;;;5.11;100.00
77207;BME280;66190;50.708;7.906;2023-12-14T03:34:14;95654.03;;;5.15;100.00
77207;BME280;66190;50.708;7.906;2023-12-14T03:36:40;95653.22;;;5.14;100.00
77207;BME280;66190;50.708;7.906;2023-12-14T03:39:05;95663.13;;;5.20;100.00
77207;BME280;66190;50.708;7.906;2023-12-14T03:41:31;95659.44;;;5.21;100.00
77207;BME280;66190;50.708;7.906;2023-12-14T03:43:57;95674.88;;;5.26;100.00
77207;BME280;66190;50.708;7.906;2023-12-14T03:46:22;95669.75;;;5.24;100.00
77207;BME280;66190;50.708;7.906;2023-12-14T03:48:48;95684.91;;;5.24;100.00
77207;BME280;66190;50.708;7.906;2023-12-14T03:51:13;95680.03;;;5.27;100.00
77207;BME280;66190;50.708;7.906;2023-12-14T03:53:39;95672.47;;;5.31;100.00
77207;BME280;66190;50.708;7.906;2023-12-14T03:56:05;95669.59;;;5.32;100.00
77207;BME280;66190;50.708;7.906;2023-12-14T03:58:30;95678.44;;;5.33;100.00
77207;BME280;66190;50.708;7.906;2023-12-14T04:00:56;95694.06;;;5.36;100.00
77207;BME280;66190;50.708;7.906;2023-12-14T04:03:21;95680.72;;;5.36;100.00
77207;BME280;66190;50.708;7.906;2023-12-14T04:05:47;95690.00;;;5.40;100.00
77207;BME280;66190;50.708;7.906;2023-12-14T04:08:12;95695.34;;;5.40;100.00
77207;BME280;66190;50.708;7.906;2023-12-14T04:10:38;95701.22;;;5.35;100.00
77207;BME280;66190;50.708;7.906;2023-12-14T04:13:03;95695.81;;;5.29;100.00
77207;BME280;66190;50.708;7.906;2023-12-14T04:15:28;95707.88;;;5.25;100.00
77207;BME280;66190;50.708;7.906;2023-12-14T04:17:54;95711.38;;;5.25;100.00
77207;BME280;66190;50.708;7.906;2023-12-14T04:20:19;95703.13;;;5.20;100.00
77207;BME280;66190;50.708;7.906;2023-12-14T04:22:44;95712.16;;;5.19;100.00
77207;BME280;66190;50.708;7.906;2023-12-14T04:25:10;95710.94;;;5.22;100.00
77207;BME280;66190;50.708;7.906;2023-12-14T04:27:36;95716.25;;;5.22;100.00
77207;BME280;66190;50.708;7.906;2023-12-14T04:30:01;95723.63;;;5.20;100.00
77207;BME280;66190;50.708;7.906;2023-12-14T04:32:27;95725.47;;;5.19;100.00
77207;BME280;66190;50.708;7.906;2023-12-14T04:34:52;95727.13;;;5.20;100.00
77207;BME280;66190;50.708;7.906;2023-12-14T04:37:18;95726.47;;;5.18;100.00
77207;BME280;66190;50.708;7.906;2023-12-14T04:39:43;95733.09;;;5.22;100.00
77207;BME280;66190;50.708;7.906;2023-12-14T04:42:08;95740.53;;;5.27;100.00
77207;BME280;66190;50.708;7.906;2023-12-14T04:44:34;95744.66;;;5.29;100.00
77207;BME280;66190;50.708;7.906;2023-12-14T04:46:59;95756.72;;;5.25;100.00
77207;BME280;66190;50.708;7.906;2023-12-14T04:49:25;95754.88;;;5.26;100.00
77207;BME280;66190;50.708;7.906;2023-12-14T04:51:50;95760.41;;;5.24;100.00
77207;BME280;66190;50.708;7.906;2023-12-14T04:54:17;95757.34;;;5.27;100.00
77207;BME280;66190;50.708;7.906;2023-12-14T04:56:45;95763.16;;;5.31;100.00
77207;BME280;66190;50.708;7.906;2023-12-14T04:59:11;95773.63;;;5.32;100.00
77207;BME280;66190;50.708;7.906;2023-12-14T05:01:36;95781.50;;;5.40;100.00
77207;BME280;66190;50.708;7.906;2023-12-14T05:04:02;95784.81;;;5.42;100.00
77207;BME280;66190;50.708;7.906;2023-12-14T05:06:28;95797.25;;;5.35;100.00
77207;BME280;66190;50.708;7.906;2023-12-14T05:08:53;95796.31;;;5.43;100.00
77207;BME280;66190;50.708;7.906;2023-12-14T05:11:19;95792.38;;;5.39;100.00
77207;BME280;66190;50.708;7.906;2023-12-14T05:13:44;95794.84;;;5.40;100.00
77207;BME280;66190;50.708;7.906;2023-12-14T05:16:14;95798.97;;;5.43;100.00
77207;BME280;66190;50.708;7.906;2023-12-14T05:18:39;95800.63;;;5.44;100.00
77207;BME280;66190;50.708;7.906;2023-12-14T05:21:05;95813.69;;;5.39;100.00
77207;BME280;66190;50.708;7.906;2023-12-14T05:23:30;95809.41;;;5.38;100.00
77207;BME280;66190;50.708;7.906;2023-12-14T05:25:56;95817.97;;;5.33;100.00
77207;BME280;66190;50.708;7.906;2023-12-14T05:28:21;95822.34;;;5.41;100.00
77207;BME280;66190;50.708;7.906;2023-12-14T05:30:46;95825.84;;;5.41;100.00
77207;BME280;66190;50.708;7.906;2023-12-14T05:33:12;95825.59;;;5.36;100.00
77207;BME280;66190;50.708;7.906;2023-12-14T05:35:37;95832.03;;;5.27;100.00
77207;BME280;66190;50.708;7.906;2023-12-14T05:38:03;95832.69;;;5.29;100.00
77207;BME280;66190;50.708;7.906;2023-12-14T05:40:28;95840.09;;;5.34;100.00
77207;BME280;66190;50.708;7.906;2023-12-14T05:42:54;95847.31;;;5.33;100.00
77207;BME280;66190;50.708;7.906;2023-12-14T05:45:20;95845.16;;;5.29;100.00
77207;BME280;66190;50.708;7.906;2023-12-14T05:47:45;95852.19;;;5.30;100.00
77207;BME280;66190;50.708;7.906;2023-12-14T05:50:11;95857.06;;;5.26;100.00
77207;BME280;66190;50.708;7.906;2023-12-14T05:52:37;95856.03;;;5.27;100.00
77207;BME280;66190;50.708;7.906;2023-12-14T05:55:04;95859.72;;;5.26;100.00
77207;BME280;66190;50.708;7.906;2023-12-14T05:57:29;95869.75;;;5.24;100.00
77207;BME280;66190;50.708;7.906;2023-12-14T05:59:55;95877.19;;;5.29;100.00
77207;BME280;66190;50.708;7.906;2023-12-14T06:02:20;95872.69;;;5.29;100.00
77207;BME280;66190;50.708;7.906;2023-12-14T06:04:45;95879.47;;;5.32;100.00
77207;BME280;66190;50.708;7.906;2023-12-14T06:07:14;95889.88;;;5.27;100.00
77207;BME280;66190;50.708;7.906;2023-12-14T06:09:40;95888.50;;;5.31;100.00
77207;BME280;66190;50.708;7.906;2023-12-14T06:12:05;95888.50;;;5.31;100.00
77207;BME280;66190;50.708;7.906;2023-12-14T06:14:31;95896.69;;;5.29;100.00
77207;BME280;66190;50.708;7.906;2023-12-14T06:16:57;95903.84;;;5.29;100.00
77207;BME280;66190;50.708;7.906;2023-12-14T06:19:22;95909.63;;;5.32;100.00
77207;BME280;66190;50.708;7.906;2023-12-14T06:21:48;95911.84;;;5.29;100.00
77207;BME280;66190;50.708;7.906;2023-12-14T06:24:14;95917.19;;;5.29;100.00
77207;BME280;66190;50.708;7.906;2023-12-14T06:26:43;95919.84;;;5.29;100.00
77207;BME280;66190;50.708;7.906;2023-12-14T06:29:09;95923.53;;;5.28;100.00
77207;BME280;66190;50.708;7.906;2023-12-14T06:31:35;95926.84;;;5.30;100.00
77207;BME280;66190;50.708;7.906;2023-12-14T06:34:01;95923.53;;;5.28;100.00
77207;BME280;66190;50.708;7.906;2023-12-14T06:36:30;95935.84;;;5.29;100.00
77207;BME280;66190;50.708;7.906;2023-12-14T06:38:56;95933.56;;;5.26;100.00
77207;BME280;66190;50.708;7.906;2023-12-14T06:41:22;95935.84;;;5.29;100.00
77207;BME280;66190;50.708;7.906;2023-12-14T06:43:48;95932.19;;;5.30;100.00
77207;BME280;66190;50.708;7.906;2023-12-14T06:46:14;95931.53;;;5.28;100.00
77207;BME280;66190;50.708;7.906;2023-12-14T06:48:39;95935.66;;;5.30;100.00
77207;BME280;66190;50.708;7.906;2023-12-14T06:51:07;95939.72;;;5.26;100.00
77207;BME280;66190;50.708;7.906;2023-12-14T06:53:34;95945.69;;;5.28;100.00
77207;BME280;66190;50.708;7.906;2023-12-14T06:55:59;95953.53;;;5.30;100.00
77207;BME280;66190;50.708;7.906;2023-12-14T06:58:25;95957.00;;;5.30;100.00
77207;BME280;66190;50.708;7.906;2023-12-14T07:00:50;95957.66;;;5.32;100.00
77207;BME280;66190;50.708;7.906;2023-12-14T07:03:16;95967.00;;;5.28;100.00
77207;BME280;66190;50.708;7.906;2023-12-14T07:05:41;95972.72;;;5.25;100.00
77207;BME280;66190;50.708;7.906;2023-12-14T07:08:06;95975.03;;;5.28;100.00
77207;BME280;66190;50.708;7.906;2023-12-14T07:10:32;95978.53;;;5.29;100.00
77207;BME280;66190;50.708;7.906;2023-12-14T07:12:57;95983.84;;;5.29;100.00
77207;BME280;66190;50.708;7.906;2023-12-14T07:15:24;95993.69;;;5.28;100.00
77207;BME280;66190;50.708;7.906;2023-12-14T07:17:50;96004.00;;;5.31;100.00
77207;BME280;66190;50.708;7.906;2023-12-14T07:20:15;96008.69;;;5.29;100.00
77207;BME280;66190;50.708;7.906;2023-12-14T07:22:41;96013.38;;;5.27;100.00
77207;BME280;66190;50.708;7.906;2023-12-14T07:25:07;96021.00;;;5.30;100.00
77207;BME280;66190;50.708;7.906;2023-12-14T07:27:33;96031.97;;;5.35;100.00
77207;BME280;66190;50.708;7.906;2023-12-14T07:29:58;96038.63;;;5.17;100.00
77207;BME280;66190;50.708;7.906;2023-12-14T07:32:24;96048.06;;;5.05;100.00
77207;BME280;66190;50.708;7.906;2023-12-14T07:34:49;96055.19;;;5.12;100.00
77207;BME280;66190;50.708;7.906;2023-12-14T07:37:14;96063.00;;;5.14;100.00
77207;BME280;66190;50.708;7.906;2023-12-14T07:39:40;96069.19;;;5.14;100.00
77207;BME280;66190;50.708;7.906;2023-12-14T07:42:05;96071.19;;;5.12;100.00
77207;BME280;66190;50.708;7.906;2023-12-14T07:44:31;96079.78;;;5.00;100.00
77207;BME280;66190;50.708;7.906;2023-12-14T07:46:59;96076.22;;;5.07;100.00
77207;BME280;66190;50.708;7.906;2023-12-14T07:49:25;96083.28;;;5.00;100.00
77207;BME280;66190;50.708;7.906;2023-12-14T07:51:50;96082.63;;;4.98;100.00
77207;BME280;66190;50.708;7.906;2023-12-14T07:54:17;96085.31;;;4.90;100.00
77207;BME280;66190;50.708;7.906;2023-12-14T07:56:42;96091.38;;;5.07;100.00
77207;BME280;66190;50.708;7.906;2023-12-14T07:59:07;96098.53;;;5.06;100.00
77207;BME280;66190;50.708;7.906;2023-12-14T08:01:34;96092.56;;;5.04;100.00
77207;BME280;66190;50.708;7.906;2023-12-14T08:03:59;96097.47;;;4.93;100.00
77207;BME280;66190;50.708;7.906;2023-12-14T08:06:25;96096.25;;;5.03;100.00
77207;BME280;66190;50.708;7.906;2023-12-14T08:08:51;96108.91;;;5.01;100.00
77207;BME280;66190;50.708;7.906;2023-12-14T08:11:16;96116.06;;;5.01;100.00
77207;BME280;66190;50.708;7.906;2023-12-14T08:13:42;96123.59;;;4.97;100.00
77207;BME280;66190;50.708;7.906;2023-12-14T08:16:08;96133.25;;;4.98;100.00
77207;BME280;66190;50.708;7.906;2023-12-14T08:18:33;96137.53;;;5.07;100.00
77207;BME280;66190;50.708;7.906;2023-12-14T08:20:59;96147.88;;;5.02;100.00
77207;BME280;66190;50.708;7.906;2023-12-14T08:23:24;96146.72;;;5.05;100.00
77207;BME280;66190;50.708;7.906;2023-12-14T08:25:53;96149.19;;;5.06;100.00
77207;BME280;66190;50.708;7.906;2023-12-14T08:28:22;96147.00;;;5.10;100.00
77207;BME280;66190;50.708;7.906;2023-12-14T08:30:47;96155.72;;;5.04;100.00
77207;BME280;66190;50.708;7.906;2023-12-14T08:33:13;96162.81;;;5.11;100.00
77207;BME280;66190;50.708;7.906;2023-12-14T08:35:39;96170.81;;;5.11;100.00
77207;BME280;66190;50.708;7.906;2023-12-14T08:38:04;96170.66;;;5.13;100.00
77207;BME280;66190;50.708;7.906;2023-12-14T08:40:29;96173.50;;;5.11;100.00
77207;BME280;66190;50.708;7.906;2023-12-14T08:42:55;96184.53;;;5.08;100.00
77207;BME280;66190;50.708;7.906;2023-12-14T08:45:22;96189.19;;;5.06;100.00
77207;BME280;66190;50.708;7.906;2023-12-14T08:47:47;96187.06;;;5.02;100.00
77207;BME280;66190;50.708;7.906;2023-12-14T08:50:13;96193.91;;;4.96;100.00
77207;BME280;66190;50.708;7.906;2023-12-14T08:52:38;96196.06;;;5.01;100.00
77207;BME280;66190;50.708;7.906;2023-12-14T08:55:04;96211.88;;;5.02;100.00
77207;BME280;66190;50.708;7.906;2023-12-14T08:57:29;96210.88;;;5.03;100.00
77207;BME280;66190;50.708;7.906;2023-12-14T08:59:56;96214.50;;;5.10;100.00
77207;BME280;66190;50.708;7.906;2023-12-14T09:02:21;96222.69;;;5.09;100.00
77207;BME280;66190;50.708;7.906;2023-12-14T09:04:47;96229.19;;;5.06;100.00
77207;BME280;66190;50.708;7.906;2023-12-14T09:07:12;96233.69;;;5.06;100.00
77207;BME280;66190;50.708;7.906;2023-12-14T09:09:38;96241.19;;;5.02;100.00
77207;BME280;66190;50.708;7.906;2023-12-14T09:12:03;96239.00;;;5.06;100.00
77207;BME280;66190;50.708;7.906;2023-12-14T09:14:29;96250.16;;;5.09;100.00
77207;BME280;66190;50.708;7.906;2023-12-14T09:16:55;96254.38;;;5.04;100.00
77207;BME280;66190;50.708;7.906;2023-12-14T09:19:21;96256.50;;;5.08;100.00
77207;BME280;66190;50.708;7.906;2023-12-14T09:21:46;96254.34;;;5.12;100.00
77207;BME280;66190;50.708;7.906;2023-12-14T09:24:12;96255.66;;;5.16;100.00
77207;BME280;66190;50.708;7.906;2023-12-14T09:26:37;96261.47;;;5.19;100.00
77207;BME280;66190;50.708;7.906;2023-12-14T09:29:03;96270.16;;;5.13;100.00
77207;BME280;66190;50.708;7.906;2023-12-14T09:31:28;96270.69;;;5.09;100.00
77207;BME280;66190;50.708;7.906;2023-12-14T09:33:54;96271.66;;;5.08;100.00
77207;BME280;66190;50.708;7.906;2023-12-14T09:36:19;96282.50;;;5.06;100.00
77207;BME280;66190;50.708;7.906;2023-12-14T09:38:44;96285.41;;;4.97;100.00
77207;BME280;66190;50.708;7.906;2023-12-14T09:41:11;96286.31;;;5.12;100.00
77207;BME280;66190;50.708;7.906;2023-12-14T09:43:37;96287.72;;;5.00;100.00
77207;BME280;66190;50.708;7.906;2023-12-14T09:46:03;96294.53;;;5.02;100.00
77207;BME280;66190;50.708;7.906;2023-12-14T09:48:29;96299.53;;;4.97;100.00
77207;BME280;66190;50.708;7.906;2023-12-14T09:50:55;96303.88;;;4.90;100.00
77207;BME280;66190;50.708;7.906;2023-12-14T09:53:20;96303.41;;;4.87;100.00
77207;BME280;66190;50.708;7.906;2023-12-14T09:55:46;96306.28;;;4.77;100.00
77207;BME280;66190;50.708;7.906;2023-12-14T09:58:11;96304.94;;;4.73;100.00
77207;BME280;66190;50.708;7.906;2023-12-14T10:00:39;96314.63;;;4.74;100.00
77207;BME280;66190;50.708;7.906;2023-12-14T10:05:43;96312.94;;;4.81;100.00
77207;BME280;66190;50.708;7.906;2023-12-14T10:08:08;96319.88;;;4.90;100.00
77207;BME280;66190;50.708;7.906;2023-12-14T10:10:33;96323.38;;;4.91;100.00
77207;BME280;66190;50.708;7.906;2023-12-14T10:12:59;96334.25;;;4.81;100.00
77207;BME280;66190;50.708;7.906;2023-12-14T10:15:26;96329.78;;;4.74;100.00
77207;BME280;66190;50.708;7.906;2023-12-14T10:17:53;96334.91;;;4.91;100.00
77207;BME280;66190;50.708;7.906;2023-12-14T10:20:23;96338.91;;;4.87;100.00
77207;BME280;66190;50.708;7.906;2023-12-14T10:22:52;96337.22;;;4.94;100.00
77207;BME280;66190;50.708;7.906;2023-12-14T10:25:19;96341.88;;;5.00;100.00
77207;BME280;66190;50.708;7.906;2023-12-14T10:27:48;96342.84;;;5.07;100.00
77207;BME280;66190;50.708;7.906;2023-12-14T10:30:14;96351.00;;;5.06;100.00
77207;BME280;66190;50.708;7.906;2023-12-14T10:32:40;96353.84;;;5.12;100.00
77207;BME280;66190;50.708;7.906;2023-12-14T10:35:07;96352.00;;;5.05;100.00
77207;BME280;66190;50.708;7.906;2023-12-14T10:37:37;96350.47;;;5.18;100.00
77207;BME280;66190;50.708;7.906;2023-12-14T10:40:05;96359.00;;;5.06;100.00
77207;BME280;66190;50.708;7.906;2023-12-14T10:42:33;96356.19;;;5.07;100.00
77207;BME280;66190;50.708;7.906;2023-12-14T10:45:02;96368.50;;;5.08;100.00
77207;BME280;66190;50.708;7.906;2023-12-14T10:47:28;96361.97;;;5.19;100.00
77207;BME280;66190;50.708;7.906;2023-12-14T10:49:54;96373.38;;;4.97;100.00
77207;BME280;66190;50.708;7.906;2023-12-14T10:52:22;96374.81;;;5.15;100.00
77207;BME280;66190;50.708;7.906;2023-12-14T10:54:50;96371.34;;;5.07;100.00
77207;BME280;66190;50.708;7.906;2023-12-14T10:57:18;96379.19;;;5.00;100.00
77207;BME280;66190;50.708;7.906;2023-12-14T10:59:43;96376.34;;;5.02;100.00
77207;BME280;66190;50.708;7.906;2023-12-14T11:02:10;96378.00;;;5.11;100.00
77207;BME280;66190;50.708;7.906;2023-12-14T11:04:54;96378.34;;;5.00;100.00
77207;BME280;66190;50.708;7.906;2023-12-14T11:07:48;96386.00;;;5.11;100.00
77207;BME280;66190;50.708;7.906;2023-12-14T11:10:14;96383.84;;;5.14;100.00
77207;BME280;66190;50.708;7.906;2023-12-14T11:13:00;96391.66;;;5.16;100.00
77207;BME280;66190;50.708;7.906;2023-12-14T11:15:25;96394.69;;;4.97;100.00
77207;BME280;66190;50.708;7.906;2023-12-14T11:23:11;96411.34;;;4.91;100.00
77207;BME280;66190;50.708;7.906;2023-12-14T11:25:39;96404.53;;;4.88;100.00
77207;BME280;66190;50.708;7.906;2023-12-14T11:28:06;96412.50;;;5.04;100.00
77207;BME280;66190;50.708;7.906;2023-12-14T11:30:35;96411.50;;;4.97;100.00
77207;BME280;66190;50.708;7.906;2023-12-14T11:33:00;96413.34;;;5.05;100.00
77207;BME280;66190;50.708;7.906;2023-12-14T11:35:26;96419.00;;;5.10;100.00
77207;BME280;66190;50.708;7.906;2023-12-14T11:37:51;96423.97;;;5.13;100.00
77207;BME280;66190;50.708;7.906;2023-12-14T11:40:16;96424.47;;;5.16;100.00
77207;BME280;66190;50.708;7.906;2023-12-14T11:43:08;96427.97;;;5.17;100.00
77207;BME280;66190;50.708;7.906;2023-12-14T11:45:35;96437.69;;;5.02;100.00
77207;BME280;66190;50.708;7.906;2023-12-14T11:48:02;96431.84;;;4.98;100.00
77207;BME280;66190;50.708;7.906;2023-12-14T11:50:31;96443.03;;;4.86;100.00
77207;BME280;66190;50.708;7.906;2023-12-14T11:52:57;96445.19;;;4.66;100.00
77207;BME280;66190;50.708;7.906;2023-12-14T11:55:23;96448.19;;;4.79;100.00
77207;BME280;66190;50.708;7.906;2023-12-14T11:57:49;96452.53;;;4.88;100.00
77207;BME280;66190;50.708;7.906;2023-12-14T12:00:15;96444.34;;;4.90;100.00
77207;BME280;66190;50.708;7.906;2023-12-14T12:02:42;96450.19;;;4.93;100.00
77207;BME280;66190;50.708;7.906;2023-12-14T12:05:07;96451.84;;;4.94;100.00
77207;BME280;66190;50.708;7.906;2023-12-14T12:07:33;96446.50;;;4.78;100.00
77207;BME280;66190;50.708;7.906;2023-12-14T12:09:59;96456.03;;;4.97;100.00
77207;BME280;66190;50.708;7.906;2023-12-14T12:12:25;96452.66;;;4.87;100.00
77207;BME280;66190;50.708;7.906;2023-12-14T12:14:50;96457.66;;;4.82;100.00
77207;BME280;66190;50.708;7.906;2023-12-14T12:17:18;96462.19;;;4.65;100.00
77207;BME280;66190;50.708;7.906;2023-12-14T12:19:45;96463.69;;;4.76;100.00
77207;BME280;66190;50.708;7.906;2023-12-14T12:22:11;96467.50;;;4.73;100.00
77207;BME280;66190;50.708;7.906;2023-12-14T12:24:36;96461.34;;;4.81;100.00
77207;BME280;66190;50.708;7.906;2023-12-14T12:27:03;96460.84;;;4.77;100.00
77207;BME280;66190;50.708;7.906;2023-12-14T12:29:29;96464.66;;;4.91;100.00
77207;BME280;66190;50.708;7.906;2023-12-14T12:31:55;96465.19;;;4.70;100.00
77207;BME280;66190;50.708;7.906;2023-12-14T12:34:20;96464.34;;;4.78;100.00
77207;BME280;66190;50.708;7.906;2023-12-14T12:36:46;96461.34;;;4.73;100.00
77207;BME280;66190;50.708;7.906;2023-12-14T12:39:12;96474.34;;;4.76;100.00
77207;BME280;66190;50.708;7.906;2023-12-14T12:41:37;96462.69;;;4.77;100.00
77207;BME280;66190;50.708;7.906;2023-12-14T12:44:04;96461.19;;;4.74;100.00
77207;BME280;66190;50.708;7.906;2023-12-14T12:46:36;96468.84;;;4.69;100.00
77207;BME280;66190;50.708;7.906;2023-12-14T12:49:03;96481.81;;;4.64;100.00
77207;BME280;66190;50.708;7.906;2023-12-14T12:51:29;96469.19;;;4.58;100.00
77207;BME280;66190;50.708;7.906;2023-12-14T12:53:56;96476.16;;;4.59;100.00
77207;BME280;66190;50.708;7.906;2023-12-14T12:56:23;96477.81;;;4.76;100.00
77207;BME280;66190;50.708;7.906;2023-12-14T12:58:49;96479.66;;;4.84;100.00
77207;BME280;66190;50.708;7.906;2023-12-14T13:01:17;96484.16;;;4.83;100.00